sensor_id;sensor_type;location;lat;lon;timestamp;temperature;humidity
578;DHT22;275;48.492;9.214;2023-12-28T00:01:39;7.80;26.70
578;DHT22;275;48.492;9.214;2023-12-28T00:04:06;8.30;25.70
578;DHT22;275;48.492;9.214;2023-12-28T00:06:34;8.30;25.00
578;DHT22;275;48.492;9.214;2023-12-28T00:09:01;8.10;24.80
578;DHT22;275;48.492;9.214;2023-12-28T00:11:28;7.90;25.10
578;DHT22;275;48.492;9.214;2023-12-28T00:13:55;7.50;25.10
578;DHT22;275;48.492;9.214;2023-12-28T00:16:22;7.80;24.20
578;DHT22;275;48.492;9.214;2023-12-28T00:18:48;7.60;25.30
578;DHT22;275;48.492;9.214;2023-12-28T00:21:15;7.70;24.10
578;DHT22;275;48.492;9.214;2023-12-28T00:23:43;7.40;25.00
578;DHT22;275;48.492;9.214;2023-12-28T00:26:10;7.20;24.70
578;DHT22;275;48.492;9.214;2023-12-28T00:28:37;7.50;24.20
578;DHT22;275;48.492;9.214;2023-12-28T00:31:04;7.70;23.80
578;DHT22;275;48.492;9.214;2023-12-28T00:33:30;7.80;23.90
578;DHT22;275;48.492;9.214;2023-12-28T00:35:57;8.00;23.40
578;DHT22;275;48.492;9.214;2023-12-28T00:38:24;7.70;23.70
578;DHT22;275;48.492;9.214;2023-12-28T00:40:52;7.90;23.30
578;DHT22;275;48.492;9.214;2023-12-28T00:43:19;7.70;23.80
578;DHT22;275;48.492;9.214;2023-12-28T00:45:46;7.90;23.60
578;DHT22;275;48.492;9.214;2023-12-28T00:48:13;8.10;23.30
578;DHT22;275;48.492;9.214;2023-12-28T00:50:39;8.20;23.20
578;DHT22;275;48.492;9.214;2023-12-28T00:53:06;8.10;23.10
578;DHT22;275;48.492;9.214;2023-12-28T00:55:33;8.10;22.70
578;DHT22;275;48.492;9.214;2023-12-28T00:58:01;8.30;22.50
578;DHT22;275;48.492;9.214;2023-12-28T01:00:28;8.00;23.30
578;DHT22;275;48.492;9.214;2023-12-28T01:02:55;7.70;23.50
578;DHT22;275;48.492;9.214;2023-12-28T01:05:22;7.90;23.50
578;DHT22;275;48.492;9.214;2023-12-28T01:07:51;8.00;23.90
578;DHT22;275;48.492;9.214;2023-12-28T01:10:18;8.10;24.00
578;DHT22;275;48.492;9.214;2023-12-28T01:12:45;8.10;24.00
578;DHT22;275;48.492;9.214;2023-12-28T01:15:13;8.00;24.50
578;DHT22;275;48.492;9.214;2023-12-28T01:17:42;7.50;24.20
578;DHT22;275;48.492;9.214;2023-12-28T01:20:10;7.80;23.60
578;DHT22;275;48.492;9.214;2023-12-28T01:22:37;8.00;23.20
578;DHT22;275;48.492;9.214;2023-12-28T01:25:04;8.20;22.80
578;DHT22;275;48.492;9.214;2023-12-28T01:27:31;8.40;21.80
578;DHT22;275;48.492;9.214;2023-12-28T01:29:58;8.70;20.90
578;DHT22;275;48.492;9.214;2023-12-28T01:32:26;8.60;21.70
578;DHT22;275;48.492;9.214;2023-12-28T01:34:53;8.50;22.70
578;DHT22;275;48.492;9.214;2023-12-28T01:37:20;8.50;22.80
578;DHT22;275;48.492;9.214;2023-12-28T01:39:46;8.50;23.20
578;DHT22;275;48.492;9.214;2023-12-28T01:42:13;8.50;22.80
578;DHT22;275;48.492;9.214;2023-12-28T01:44:40;8.30;22.80
578;DHT22;275;48.492;9.214;2023-12-28T01:47:07;8.20;23.40
578;DHT22;275;48.492;9.214;2023-12-28T01:49:36;8.10;23.50
578;DHT22;275;48.492;9.214;2023-12-28T01:52:04;8.10;23.80
578;DHT22;275;48.492;9.214;2023-12-28T01:54:31;8.10;23.60
578;DHT22;275;48.492;9.214;2023-12-28T01:56:59;8.30;23.40
578;DHT22;275;48.492;9.214;2023-12-28T01:59:27;8.30;23.20
578;DHT22;275;48.492;9.214;2023-12-28T02:01:54;8.30;23.20
578;DHT22;275;48.492;9.214;2023-12-28T02:04:21;8.50;22.80
578;DHT22;275;48.492;9.214;2023-12-28T02:06:57;8.70;22.90
578;DHT22;275;48.492;9.214;2023-12-28T02:09:24;8.70;22.70
578;DHT22;275;48.492;9.214;2023-12-28T02:11:51;8.60;23.20
578;DHT22;275;48.492;9.214;2023-12-28T02:14:18;8.50;23.50
578;DHT22;275;48.492;9.214;2023-12-28T02:16:50;8.50;23.50
578;DHT22;275;48.492;9.214;2023-12-28T02:19:24;8.50;23.70
578;DHT22;275;48.492;9.214;2023-12-28T02:21:56;8.50;23.60
578;DHT22;275;48.492;9.214;2023-12-28T02:24:23;8.40;23.70
578;DHT22;275;48.492;9.214;2023-12-28T02:26:52;8.40;23.10
578;DHT22;275;48.492;9.214;2023-12-28T02:29:18;8.30;23.20
578;DHT22;275;48.492;9.214;2023-12-28T02:31:49;8.00;23.60
578;DHT22;275;48.492;9.214;2023-12-28T02:34:22;8.20;22.40
578;DHT22;275;48.492;9.214;2023-12-28T02:36:52;8.30;22.00
578;DHT22;275;48.492;9.214;2023-12-28T02:39:22;8.50;21.80
578;DHT22;275;48.492;9.214;2023-12-28T02:41:49;8.60;21.30
578;DHT22;275;48.492;9.214;2023-12-28T02:44:18;8.60;20.50
578;DHT22;275;48.492;9.214;2023-12-28T02:46:45;8.80;18.30
578;DHT22;275;48.492;9.214;2023-12-28T02:49:12;8.90;19.90
578;DHT22;275;48.492;9.214;2023-12-28T02:51:40;9.20;19.70
578;DHT22;275;48.492;9.214;2023-12-28T02:54:08;9.10;20.60
578;DHT22;275;48.492;9.214;2023-12-28T02:56:35;9.10;20.70
578;DHT22;275;48.492;9.214;2023-12-28T02:59:02;9.10;20.80
578;DHT22;275;48.492;9.214;2023-12-28T03:01:30;8.90;20.50
578;DHT22;275;48.492;9.214;2023-12-28T03:03:57;8.70;21.40
578;DHT22;275;48.492;9.214;2023-12-28T03:06:23;8.80;22.10
578;DHT22;275;48.492;9.214;2023-12-28T03:08:50;8.90;21.50
578;DHT22;275;48.492;9.214;2023-12-28T03:11:17;9.00;21.50
578;DHT22;275;48.492;9.214;2023-12-28T03:13:46;9.10;20.30
578;DHT22;275;48.492;9.214;2023-12-28T03:16:13;9.10;19.60
578;DHT22;275;48.492;9.214;2023-12-28T03:18:42;9.20;19.40
578;DHT22;275;48.492;9.214;2023-12-28T03:21:08;9.10;20.40
578;DHT22;275;48.492;9.214;2023-12-28T03:23:35;8.80;21.10
578;DHT22;275;48.492;9.214;2023-12-28T03:26:02;8.70;21.80
578;DHT22;275;48.492;9.214;2023-12-28T03:28:29;8.90;22.10
578;DHT22;275;48.492;9.214;2023-12-28T03:30:56;9.10;21.20
578;DHT22;275;48.492;9.214;2023-12-28T03:33:23;9.00;21.90
578;DHT22;275;48.492;9.214;2023-12-28T03:35:52;8.90;21.60
578;DHT22;275;48.492;9.214;2023-12-28T03:38:18;9.00;21.20
578;DHT22;275;48.492;9.214;2023-12-28T03:40:45;9.00;21.50
578;DHT22;275;48.492;9.214;2023-12-28T03:43:13;9.10;21.50
578;DHT22;275;48.492;9.214;2023-12-28T03:45:40;9.00;21.60
578;DHT22;275;48.492;9.214;2023-12-28T03:48:07;9.00;21.30
578;DHT22;275;48.492;9.214;2023-12-28T03:50:34;9.10;21.50
578;DHT22;275;48.492;9.214;2023-12-28T03:53:02;9.40;20.20
578;DHT22;275;48.492;9.214;2023-12-28T03:55:29;9.60;19.50
578;DHT22;275;48.492;9.214;2023-12-28T03:57:56;9.80;18.30
578;DHT22;275;48.492;9.214;2023-12-28T04:00:23;10.00;17.30
578;DHT22;275;48.492;9.214;2023-12-28T04:02:51;10.20;16.90
578;DHT22;275;48.492;9.214;2023-12-28T04:05:18;10.20;16.80
578;DHT22;275;48.492;9.214;2023-12-28T04:07:44;10.00;17.30
578;DHT22;275;48.492;9.214;2023-12-28T04:10:13;9.70;18.60
578;DHT22;275;48.492;9.214;2023-12-28T04:12:39;9.70;18.10
578;DHT22;275;48.492;9.214;2023-12-28T04:15:06;9.30;18.90
578;DHT22;275;48.492;9.214;2023-12-28T04:17:33;9.20;19.90
578;DHT22;275;48.492;9.214;2023-12-28T04:20:00;9.30;18.50
578;DHT22;275;48.492;9.214;2023-12-28T04:22:27;9.50;18.80
578;DHT22;275;48.492;9.214;2023-12-28T04:24:54;9.60;18.30
578;DHT22;275;48.492;9.214;2023-12-28T04:27:22;9.60;17.90
578;DHT22;275;48.492;9.214;2023-12-28T04:29:49;9.40;19.40
578;DHT22;275;48.492;9.214;2023-12-28T04:32:16;9.40;20.20
578;DHT22;275;48.492;9.214;2023-12-28T04:34:43;9.50;18.70
578;DHT22;275;48.492;9.214;2023-12-28T04:37:09;9.60;20.10
578;DHT22;275;48.492;9.214;2023-12-28T04:39:37;9.70;19.90
578;DHT22;275;48.492;9.214;2023-12-28T04:42:04;9.80;19.90
578;DHT22;275;48.492;9.214;2023-12-28T04:44:32;9.70;20.00
578;DHT22;275;48.492;9.214;2023-12-28T04:47:03;9.60;19.30
578;DHT22;275;48.492;9.214;2023-12-28T04:49:30;9.70;19.90
578;DHT22;275;48.492;9.214;2023-12-28T04:51:57;9.60;20.10
578;DHT22;275;48.492;9.214;2023-12-28T04:54:25;9.50;20.30
578;DHT22;275;48.492;9.214;2023-12-28T04:56:52;9.20;20.40
578;DHT22;275;48.492;9.214;2023-12-28T04:59:19;8.90;21.00
578;DHT22;275;48.492;9.214;2023-12-28T05:01:47;9.40;20.50
578;DHT22;275;48.492;9.214;2023-12-28T05:04:14;9.60;20.20
578;DHT22;275;48.492;9.214;2023-12-28T05:06:41;9.40;19.80
578;DHT22;275;48.492;9.214;2023-12-28T05:09:08;9.40;19.10
578;DHT22;275;48.492;9.214;2023-12-28T05:11:35;9.80;18.80
578;DHT22;275;48.492;9.214;2023-12-28T05:14:01;10.00;17.40
578;DHT22;275;48.492;9.214;2023-12-28T05:16:28;10.10;17.70
578;DHT22;275;48.492;9.214;2023-12-28T05:18:56;10.10;17.90
578;DHT22;275;48.492;9.214;2023-12-28T05:21:23;10.20;17.60
578;DHT22;275;48.492;9.214;2023-12-28T05:23:50;10.60;17.30
578;DHT22;275;48.492;9.214;2023-12-28T05:26:17;11.00;16.00
578;DHT22;275;48.492;9.214;2023-12-28T05:28:44;11.10;15.90
578;DHT22;275;48.492;9.214;2023-12-28T05:31:10;11.50;15.40
578;DHT22;275;48.492;9.214;2023-12-28T05:33:38;11.70;15.40
578;DHT22;275;48.492;9.214;2023-12-28T05:36:07;11.90;15.30
578;DHT22;275;48.492;9.214;2023-12-28T05:38:34;11.90;15.40
578;DHT22;275;48.492;9.214;2023-12-28T05:41:00;12.00;16.30
578;DHT22;275;48.492;9.214;2023-12-28T05:43:27;12.00;15.30
578;DHT22;275;48.492;9.214;2023-12-28T05:45:54;11.80;15.40
578;DHT22;275;48.492;9.214;2023-12-28T05:48:21;11.80;14.70
578;DHT22;275;48.492;9.214;2023-12-28T05:50:48;11.90;14.80
578;DHT22;275;48.492;9.214;2023-12-28T05:53:16;11.50;16.00
578;DHT22;275;48.492;9.214;2023-12-28T05:55:43;11.60;15.50
578;DHT22;275;48.492;9.214;2023-12-28T05:58:10;11.20;16.20
578;DHT22;275;48.492;9.214;2023-12-28T06:00:37;11.00;16.60
578;DHT22;275;48.492;9.214;2023-12-28T06:03:04;10.60;17.50
578;DHT22;275;48.492;9.214;2023-12-28T06:05:31;10.60;17.00
578;DHT22;275;48.492;9.214;2023-12-28T06:07:58;11.00;16.40
578;DHT22;275;48.492;9.214;2023-12-28T06:10:26;11.40;16.00
578;DHT22;275;48.492;9.214;2023-12-28T06:12:53;10.90;17.00
578;DHT22;275;48.492;9.214;2023-12-28T06:15:20;10.80;17.70
578;DHT22;275;48.492;9.214;2023-12-28T06:17:47;11.20;17.00
578;DHT22;275;48.492;9.214;2023-12-28T06:20:14;11.40;16.80
578;DHT22;275;48.492;9.214;2023-12-28T06:22:40;11.40;17.00
578;DHT22;275;48.492;9.214;2023-12-28T06:25:08;11.60;18.80
578;DHT22;275;48.492;9.214;2023-12-28T06:27:37;11.60;18.30
578;DHT22;275;48.492;9.214;2023-12-28T06:30:05;11.80;18.50
578;DHT22;275;48.492;9.214;2023-12-28T06:32:32;12.00;18.40
578;DHT22;275;48.492;9.214;2023-12-28T06:34:59;12.00;18.80
578;DHT22;275;48.492;9.214;2023-12-28T06:37:26;12.30;19.30
578;DHT22;275;48.492;9.214;2023-12-28T06:39:53;12.20;19.30
578;DHT22;275;48.492;9.214;2023-12-28T06:42:19;12.20;19.40
578;DHT22;275;48.492;9.214;2023-12-28T06:44:48;12.20;19.80
578;DHT22;275;48.492;9.214;2023-12-28T06:47:14;12.40;19.80
578;DHT22;275;48.492;9.214;2023-12-28T06:49:41;12.50;20.20
578;DHT22;275;48.492;9.214;2023-12-28T06:52:08;12.50;20.50
578;DHT22;275;48.492;9.214;2023-12-28T06:54:35;12.70;20.40
578;DHT22;275;48.492;9.214;2023-12-28T06:57:02;13.00;20.10
578;DHT22;275;48.492;9.214;2023-12-28T06:59:28;13.40;19.50
578;DHT22;275;48.492;9.214;2023-12-28T07:01:56;13.90;19.10
578;DHT22;275;48.492;9.214;2023-12-28T07:04:23;14.20;18.70
578;DHT22;275;48.492;9.214;2023-12-28T07:06:54;14.20;18.60
578;DHT22;275;48.492;9.214;2023-12-28T07:09:21;14.00;18.90
578;DHT22;275;48.492;9.214;2023-12-28T07:11:48;14.10;18.80
578;DHT22;275;48.492;9.214;2023-12-28T07:14:15;13.90;18.90
578;DHT22;275;48.492;9.214;2023-12-28T07:16:41;14.00;19.10
578;DHT22;275;48.492;9.214;2023-12-28T07:19:10;14.00;19.20
578;DHT22;275;48.492;9.214;2023-12-28T07:21:36;14.00;19.20
578;DHT22;275;48.492;9.214;2023-12-28T07:24:04;13.90;19.30
578;DHT22;275;48.492;9.214;2023-12-28T07:26:31;14.10;19.50
578;DHT22;275;48.492;9.214;2023-12-28T07:28:58;14.20;18.90
578;DHT22;275;48.492;9.214;2023-12-28T07:31:25;14.20;19.20
578;DHT22;275;48.492;9.214;2023-12-28T07:33:52;14.40;18.70
578;DHT22;275;48.492;9.214;2023-12-28T07:36:20;14.50;18.70
578;DHT22;275;48.492;9.214;2023-12-28T07:38:47;14.30;18.90
578;DHT22;275;48.492;9.214;2023-12-28T07:41:14;14.40;19.10
578;DHT22;275;48.492;9.214;2023-12-28T07:43:41;14.20;19.50
578;DHT22;275;48.492;9.214;2023-12-28T07:46:08;14.20;19.60
578;DHT22;275;48.492;9.214;2023-12-28T07:48:34;14.10;19.60
578;DHT22;275;48.492;9.214;2023-12-28T07:51:04;14.10;19.60
578;DHT22;275;48.492;9.214;2023-12-28T07:53:32;13.80;20.20
578;DHT22;275;48.492;9.214;2023-12-28T07:55:59;13.30;20.70
578;DHT22;275;48.492;9.214;2023-12-28T07:58:26;13.40;20.70
578;DHT22;275;48.492;9.214;2023-12-28T08:00:53;13.40;20.50
578;DHT22;275;48.492;9.214;2023-12-28T08:03:20;13.30;20.90
578;DHT22;275;48.492;9.214;2023-12-28T08:05:47;13.40;20.50
578;DHT22;275;48.492;9.214;2023-12-28T08:08:13;13.30;20.90
578;DHT22;275;48.492;9.214;2023-12-28T08:10:42;13.30;20.10
578;DHT22;275;48.492;9.214;2023-12-28T08:13:08;13.00;20.30
578;DHT22;275;48.492;9.214;2023-12-28T08:15:35;13.00;20.50
578;DHT22;275;48.492;9.214;2023-12-28T08:18:02;13.50;20.00
578;DHT22;275;48.492;9.214;2023-12-28T08:20:29;13.90;19.40
578;DHT22;275;48.492;9.214;2023-12-28T08:22:56;14.20;18.50
578;DHT22;275;48.492;9.214;2023-12-28T08:25:23;14.20;18.70
578;DHT22;275;48.492;9.214;2023-12-28T08:27:51;14.20;18.50
578;DHT22;275;48.492;9.214;2023-12-28T08:30:18;14.30;18.20
578;DHT22;275;48.492;9.214;2023-12-28T08:32:45;14.30;17.90
578;DHT22;275;48.492;9.214;2023-12-28T08:35:12;13.90;18.60
578;DHT22;275;48.492;9.214;2023-12-28T08:37:39;13.50;18.60
578;DHT22;275;48.492;9.214;2023-12-28T08:40:07;13.00;19.60
578;DHT22;275;48.492;9.214;2023-12-28T08:42:34;13.00;19.80
578;DHT22;275;48.492;9.214;2023-12-28T08:45:02;13.40;19.00
578;DHT22;275;48.492;9.214;2023-12-28T08:47:29;13.20;19.20
578;DHT22;275;48.492;9.214;2023-12-28T08:49:56;13.30;19.10
578;DHT22;275;48.492;9.214;2023-12-28T08:52:22;13.30;19.90
578;DHT22;275;48.492;9.214;2023-12-28T08:54:49;13.60;19.00
578;DHT22;275;48.492;9.214;2023-12-28T08:57:16;13.60;18.40
578;DHT22;275;48.492;9.214;2023-12-28T08:59:43;14.00;18.30
578;DHT22;275;48.492;9.214;2023-12-28T09:02:12;14.00;18.30
578;DHT22;275;48.492;9.214;2023-12-28T09:04:40;14.20;18.10
578;DHT22;275;48.492;9.214;2023-12-28T09:07:07;13.80;19.10
578;DHT22;275;48.492;9.214;2023-12-28T09:09:35;14.10;18.50
578;DHT22;275;48.492;9.214;2023-12-28T09:12:05;14.40;18.50
578;DHT22;275;48.492;9.214;2023-12-28T09:14:32;14.50;18.40
578;DHT22;275;48.492;9.214;2023-12-28T09:16:59;14.80;17.60
578;DHT22;275;48.492;9.214;2023-12-28T09:19:27;14.70;17.60
578;DHT22;275;48.492;9.214;2023-12-28T09:21:54;14.90;17.50
578;DHT22;275;48.492;9.214;2023-12-28T09:24:21;15.00;17.40
578;DHT22;275;48.492;9.214;2023-12-28T09:26:48;15.00;16.70
578;DHT22;275;48.492;9.214;2023-12-28T09:29:14;15.20;16.80
578;DHT22;275;48.492;9.214;2023-12-28T09:31:41;15.30;17.30
578;DHT22;275;48.492;9.214;2023-12-28T09:34:08;15.20;17.30
578;DHT22;275;48.492;9.214;2023-12-28T09:36:36;15.10;17.40
578;DHT22;275;48.492;9.214;2023-12-28T09:39:03;15.10;17.20
578;DHT22;275;48.492;9.214;2023-12-28T09:41:36;15.20;17.50
578;DHT22;275;48.492;9.214;2023-12-28T09:44:08;15.20;17.40
578;DHT22;275;48.492;9.214;2023-12-28T09:46:37;15.20;17.70
578;DHT22;275;48.492;9.214;2023-12-28T09:49:07;15.20;17.70
578;DHT22;275;48.492;9.214;2023-12-28T09:51:36;15.30;17.10
578;DHT22;275;48.492;9.214;2023-12-28T09:54:04;15.40;16.70
578;DHT22;275;48.492;9.214;2023-12-28T09:56:32;15.40;16.50
578;DHT22;275;48.492;9.214;2023-12-28T09:58:59;15.40;16.80
578;DHT22;275;48.492;9.214;2023-12-28T10:01:28;15.30;17.20
578;DHT22;275;48.492;9.214;2023-12-28T10:03:55;15.40;17.10
578;DHT22;275;48.492;9.214;2023-12-28T10:06:22;15.40;17.10
578;DHT22;275;48.492;9.214;2023-12-28T10:08:50;15.40;17.40
578;DHT22;275;48.492;9.214;2023-12-28T10:11:18;15.30;17.20
578;DHT22;275;48.492;9.214;2023-12-28T10:13:45;15.30;17.00
578;DHT22;275;48.492;9.214;2023-12-28T10:16:12;15.10;17.10
578;DHT22;275;48.492;9.214;2023-12-28T10:18:40;15.00;16.80
578;DHT22;275;48.492;9.214;2023-12-28T10:21:08;14.80;17.30
578;DHT22;275;48.492;9.214;2023-12-28T10:23:35;14.80;17.30
578;DHT22;275;48.492;9.214;2023-12-28T10:26:04;14.90;17.20
578;DHT22;275;48.492;9.214;2023-12-28T10:28:31;14.70;17.50
578;DHT22;275;48.492;9.214;2023-12-28T10:30:58;14.20;18.10
578;DHT22;275;48.492;9.214;2023-12-28T10:33:25;14.10;18.70
578;DHT22;275;48.492;9.214;2023-12-28T10:35:52;14.70;17.90
578;DHT22;275;48.492;9.214;2023-12-28T10:38:22;15.10;17.50
578;DHT22;275;48.492;9.214;2023-12-28T10:40:52;15.40;17.20
578;DHT22;275;48.492;9.214;2023-12-28T10:43:23;15.10;17.70
578;DHT22;275;48.492;9.214;2023-12-28T10:45:51;15.10;17.60
578;DHT22;275;48.492;9.214;2023-12-28T10:48:25;14.60;18.70
578;DHT22;275;48.492;9.214;2023-12-28T10:50:57;14.50;18.90
578;DHT22;275;48.492;9.214;2023-12-28T10:53:35;14.80;18.70
578;DHT22;275;48.492;9.214;2023-12-28T10:56:13;15.70;17.70
578;DHT22;275;48.492;9.214;2023-12-28T10:58:48;16.10;17.30
578;DHT22;275;48.492;9.214;2023-12-28T11:01:20;16.30;17.10
578;DHT22;275;48.492;9.214;2023-12-28T11:03:52;16.80;16.40
578;DHT22;275;48.492;9.214;2023-12-28T11:06:24;17.10;16.40
578;DHT22;275;48.492;9.214;2023-12-28T11:08:52;17.00;16.90
578;DHT22;275;48.492;9.214;2023-12-28T11:11:21;17.10;17.00
578;DHT22;275;48.492;9.214;2023-12-28T11:13:51;16.70;17.40
578;DHT22;275;48.492;9.214;2023-12-28T11:16:18;16.30;18.20
578;DHT22;275;48.492;9.214;2023-12-28T11:18:46;16.60;18.20
578;DHT22;275;48.492;9.214;2023-12-28T11:21:14;16.10;19.30
578;DHT22;275;48.492;9.214;2023-12-28T11:23:41;15.40;20.60
578;DHT22;275;48.492;9.214;2023-12-28T11:26:16;15.30;21.40
578;DHT22;275;48.492;9.214;2023-12-28T11:28:43;15.30;21.70
578;DHT22;275;48.492;9.214;2023-12-28T11:31:13;15.00;22.40
578;DHT22;275;48.492;9.214;2023-12-28T11:33:44;15.50;21.90
578;DHT22;275;48.492;9.214;2023-12-28T11:36:11;16.10;21.20
578;DHT22;275;48.492;9.214;2023-12-28T11:38:40;16.50;20.40
578;DHT22;275;48.492;9.214;2023-12-28T11:41:08;16.70;19.90
578;DHT22;275;48.492;9.214;2023-12-28T11:43:35;16.00;21.70
578;DHT22;275;48.492;9.214;2023-12-28T11:46:03;16.00;21.40
578;DHT22;275;48.492;9.214;2023-12-28T11:48:32;16.50;20.80
578;DHT22;275;48.492;9.214;2023-12-28T11:51:00;16.70;20.60
578;DHT22;275;48.492;9.214;2023-12-28T11:53:28;17.10;20.00
578;DHT22;275;48.492;9.214;2023-12-28T11:56:00;16.40;20.90
578;DHT22;275;48.492;9.214;2023-12-28T11:58:28;15.80;21.10
578;DHT22;275;48.492;9.214;2023-12-28T12:00:55;15.30;22.20
578;DHT22;275;48.492;9.214;2023-12-28T12:03:25;15.60;22.00
578;DHT22;275;48.492;9.214;2023-12-28T12:05:53;15.70;21.60
578;DHT22;275;48.492;9.214;2023-12-28T12:08:20;15.80;21.60
578;DHT22;275;48.492;9.214;2023-12-28T12:10:47;16.50;20.90
578;DHT22;275;48.492;9.214;2023-12-28T12:13:14;17.10;20.00
578;DHT22;275;48.492;9.214;2023-12-28T12:15:41;17.60;19.50
578;DHT22;275;48.492;9.214;2023-12-28T12:18:09;17.70;19.80
578;DHT22;275;48.492;9.214;2023-12-28T12:20:36;17.70;19.40
578;DHT22;275;48.492;9.214;2023-12-28T12:23:06;17.70;19.40
578;DHT22;275;48.492;9.214;2023-12-28T12:25:32;17.70;19.50
578;DHT22;275;48.492;9.214;2023-12-28T12:27:59;17.70;19.60
578;DHT22;275;48.492;9.214;2023-12-28T12:30:26;17.50;20.00
578;DHT22;275;48.492;9.214;2023-12-28T12:32:53;17.50;20.00
578;DHT22;275;48.492;9.214;2023-12-28T12:35:20;17.10;20.80
578;DHT22;275;48.492;9.214;2023-12-28T12:37:47;17.30;20.30
578;DHT22;275;48.492;9.214;2023-12-28T12:40:18;17.30;20.30
578;DHT22;275;48.492;9.214;2023-12-28T12:42:52;17.00;20.90
578;DHT22;275;48.492;9.214;2023-12-28T12:45:20;16.20;21.90
578;DHT22;275;48.492;9.214;2023-12-28T12:47:47;15.30;23.70
578;DHT22;275;48.492;9.214;2023-12-28T12:50:15;14.90;24.40
578;DHT22;275;48.492;9.214;2023-12-28T12:52:42;14.90;24.70
578;DHT22;275;48.492;9.214;2023-12-28T12:55:11;15.00;24.60
578;DHT22;275;48.492;9.214;2023-12-28T12:57:39;15.40;24.10
578;DHT22;275;48.492;9.214;2023-12-28T13:00:09;15.50;23.90
578;DHT22;275;48.492;9.214;2023-12-28T13:02:37;15.40;24.00
578;DHT22;275;48.492;9.214;2023-12-28T13:05:05;15.20;24.50
578;DHT22;275;48.492;9.214;2023-12-28T13:07:32;15.40;24.20
578;DHT22;275;48.492;9.214;2023-12-28T13:10:00;15.90;23.40
578;DHT22;275;48.492;9.214;2023-12-28T13:12:27;15.40;24.40
578;DHT22;275;48.492;9.214;2023-12-28T13:14:55;15.20;25.50
578;DHT22;275;48.492;9.214;2023-12-28T13:17:22;15.20;25.40
578;DHT22;275;48.492;9.214;2023-12-28T13:19:49;15.40;25.10
578;DHT22;275;48.492;9.214;2023-12-28T13:22:16;15.30;25.10
578;DHT22;275;48.492;9.214;2023-12-28T13:24:43;15.10;25.60
578;DHT22;275;48.492;9.214;2023-12-28T13:27:10;14.90;26.40
578;DHT22;275;48.492;9.214;2023-12-28T13:29:36;14.90;26.20
578;DHT22;275;48.492;9.214;2023-12-28T13:32:06;14.80;27.10
578;DHT22;275;48.492;9.214;2023-12-28T13:34:32;14.80;27.60
578;DHT22;275;48.492;9.214;2023-12-28T13:36:59;15.10;27.50
578;DHT22;275;48.492;9.214;2023-12-28T13:39:28;15.10;27.30
578;DHT22;275;48.492;9.214;2023-12-28T13:41:55;15.30;27.60
578;DHT22;275;48.492;9.214;2023-12-28T13:44:22;15.30;27.60
578;DHT22;275;48.492;9.214;2023-12-28T13:46:49;14.90;28.30
578;DHT22;275;48.492;9.214;2023-12-28T13:49:17;14.70;29.00
578;DHT22;275;48.492;9.214;2023-12-28T13:51:44;14.60;30.00
578;DHT22;275;48.492;9.214;2023-12-28T13:54:11;13.90;31.20
578;DHT22;275;48.492;9.214;2023-12-28T13:56:38;14.00;32.40
578;DHT22;275;48.492;9.214;2023-12-28T13:59:07;14.20;32.40
578;DHT22;275;48.492;9.214;2023-12-28T14:01:34;13.90;32.80
578;DHT22;275;48.492;9.214;2023-12-28T14:04:01;13.60;34.10
578;DHT22;275;48.492;9.214;2023-12-28T14:06:30;13.60;34.10
578;DHT22;275;48.492;9.214;2023-12-28T14:08:57;13.90;33.90
578;DHT22;275;48.492;9.214;2023-12-28T14:11:24;14.20;33.10
578;DHT22;275;48.492;9.214;2023-12-28T14:16:29;14.10;33.60
578;DHT22;275;48.492;9.214;2023-12-28T14:18:56;13.60;34.00
578;DHT22;275;48.492;9.214;2023-12-28T14:21:23;13.80;34.00
578;DHT22;275;48.492;9.214;2023-12-28T14:23:51;13.80;33.70
578;DHT22;275;48.492;9.214;2023-12-28T14:26:18;13.90;33.40
578;DHT22;275;48.492;9.214;2023-12-28T14:28:47;13.10;34.60
578;DHT22;275;48.492;9.214;2023-12-28T14:31:13;12.80;32.80
578;DHT22;275;48.492;9.214;2023-12-28T14:33:42;12.60;35.40
578;DHT22;275;48.492;9.214;2023-12-28T14:36:21;12.80;33.20
578;DHT22;275;48.492;9.214;2023-12-28T14:38:50;12.70;33.70
578;DHT22;275;48.492;9.214;2023-12-28T14:41:17;12.30;34.10
578;DHT22;275;48.492;9.214;2023-12-28T14:43:43;12.20;34.10
578;DHT22;275;48.492;9.214;2023-12-28T14:46:10;12.20;33.70
578;DHT22;275;48.492;9.214;2023-12-28T14:48:37;12.10;34.10
578;DHT22;275;48.492;9.214;2023-12-28T14:51:05;12.50;32.80
578;DHT22;275;48.492;9.214;2023-12-28T14:53:32;12.10;31.80
578;DHT22;275;48.492;9.214;2023-12-28T14:55:59;12.00;32.00
578;DHT22;275;48.492;9.214;2023-12-28T14:58:26;12.10;32.70
578;DHT22;275;48.492;9.214;2023-12-28T15:00:53;12.10;29.80
578;DHT22;275;48.492;9.214;2023-12-28T15:03:20;12.40;31.30
578;DHT22;275;48.492;9.214;2023-12-28T15:05:47;12.70;29.90
578;DHT22;275;48.492;9.214;2023-12-28T15:08:15;12.60;29.10
578;DHT22;275;48.492;9.214;2023-12-28T15:10:42;12.50;29.50
578;DHT22;275;48.492;9.214;2023-12-28T15:13:10;12.70;29.30
578;DHT22;275;48.492;9.214;2023-12-28T15:15:38;12.70;29.10
578;DHT22;275;48.492;9.214;2023-12-28T15:18:06;12.60;29.30
578;DHT22;275;48.492;9.214;2023-12-28T15:20:33;12.70;29.40
578;DHT22;275;48.492;9.214;2023-12-28T15:23:01;12.80;28.70
578;DHT22;275;48.492;9.214;2023-12-28T15:25:29;12.90;29.00
578;DHT22;275;48.492;9.214;2023-12-28T15:27:56;12.50;28.60
578;DHT22;275;48.492;9.214;2023-12-28T15:30:23;12.20;28.80
578;DHT22;275;48.492;9.214;2023-12-28T15:32:50;12.50;29.20
578;DHT22;275;48.492;9.214;2023-12-28T15:35:17;12.70;28.90
578;DHT22;275;48.492;9.214;2023-12-28T15:37:43;12.50;28.90
578;DHT22;275;48.492;9.214;2023-12-28T15:40:11;12.80;28.70
578;DHT22;275;48.492;9.214;2023-12-28T15:42:39;13.00;27.90
578;DHT22;275;48.492;9.214;2023-12-28T15:45:06;12.80;28.20
578;DHT22;275;48.492;9.214;2023-12-28T15:47:33;12.90;28.30
578;DHT22;275;48.492;9.214;2023-12-28T15:50:00;12.80;27.40
578;DHT22;275;48.492;9.214;2023-12-28T15:52:27;12.30;29.40
578;DHT22;275;48.492;9.214;2023-12-28T15:54:54;12.10;29.60
578;DHT22;275;48.492;9.214;2023-12-28T15:57:22;12.50;29.20
578;DHT22;275;48.492;9.214;2023-12-28T15:59:50;12.50;29.00
578;DHT22;275;48.492;9.214;2023-12-28T16:02:23;13.00;28.10
578;DHT22;275;48.492;9.214;2023-12-28T16:04:50;13.00;28.30
578;DHT22;275;48.492;9.214;2023-12-28T16:07:17;13.10;27.80
578;DHT22;275;48.492;9.214;2023-12-28T16:09:43;13.60;27.50
578;DHT22;275;48.492;9.214;2023-12-28T16:12:10;14.10;26.50
578;DHT22;275;48.492;9.214;2023-12-28T16:14:38;14.20;26.00
578;DHT22;275;48.492;9.214;2023-12-28T16:17:07;13.80;26.60
578;DHT22;275;48.492;9.214;2023-12-28T16:19:36;13.10;27.90
578;DHT22;275;48.492;9.214;2023-12-28T16:22:04;13.20;28.10
578;DHT22;275;48.492;9.214;2023-12-28T16:24:30;13.50;27.30
578;DHT22;275;48.492;9.214;2023-12-28T16:26:57;13.20;27.70
578;DHT22;275;48.492;9.214;2023-12-28T16:29:24;13.20;28.20
578;DHT22;275;48.492;9.214;2023-12-28T16:31:51;13.70;27.40
578;DHT22;275;48.492;9.214;2023-12-28T16:34:19;14.00;27.00
578;DHT22;275;48.492;9.214;2023-12-28T16:36:46;14.00;27.20
578;DHT22;275;48.492;9.214;2023-12-28T16:39:13;13.40;28.20
578;DHT22;275;48.492;9.214;2023-12-28T16:41:40;13.40;28.30
578;DHT22;275;48.492;9.214;2023-12-28T16:44:07;13.30;28.80